Time;durP1;ratioP1;P1;durP2;ratioP2;P2;SDS_P1;SDS_P2;PMS_P1;PMS_P2;Temp;Humidity;BMP_temperature;BMP_pressure;BME280_temperature;BME280_humidity;BME280_pressure;Samples;Min_cycle;Max_cycle;Signal;HPM_P1;HPM_P2
2024/01/13 00:00:14;;;;;;;14.10;6.10;;;1.90;99.90;;;;;;5084703;28;20212;-70
2024/01/13 00:02:39;;;;;;;12.87;6.60;;;1.90;99.90;;;;;;5066436;28;20238;-69
2024/01/13 00:05:05;;;;;;;10.20;6.43;;;1.90;99.90;;;;;;5066873;28;20208;-70
2024/01/13 00:07:31;;;;;;;11.93;6.00;;;2.00;99.90;;;;;;5051471;28;20320;-71
2024/01/13 00:09:57;;;;;;;14.10;6.73;;;2.00;99.90;;;;;;5067133;28;20494;-70
2024/01/13 00:12:22;;;;;;;15.93;6.40;;;2.00;99.90;;;;;;5068301;28;20302;-69
2024/01/13 00:14:48;;;;;;;12.03;5.83;;;2.00;99.90;;;;;;5059048;28;20308;-69
2024/01/13 00:17:14;;;;;;;17.13;7.07;;;1.90;99.90;;;;;;5063953;28;20218;-69
2024/01/13 00:19:39;;;;;;;11.97;7.00;;;1.90;99.90;;;;;;5080760;28;20303;-70
2024/01/13 00:22:05;;;;;;;11.63;6.57;;;1.90;99.90;;;;;;5075290;28;20295;-70
2024/01/13 00:24:31;;;;;;;15.57;7.40;;;2.00;99.90;;;;;;5068790;28;20245;-69
2024/01/13 00:26:56;;;;;;;21.33;6.50;;;2.00;99.90;;;;;;5082253;28;20231;-69
2024/01/13 00:29:22;;;;;;;11.67;6.20;;;2.00;99.90;;;;;;5069665;28;20281;-70
2024/01/13 00:31:47;;;;;;;17.20;6.90;;;2.00;99.90;;;;;;5053472;28;20282;-70
2024/01/13 00:34:13;;;;;;;22.90;7.87;;;1.90;99.90;;;;;;5051586;28;20839;-68
2024/01/13 00:36:39;;;;;;;14.73;6.77;;;2.00;99.90;;;;;;5067216;28;20219;-69
2024/01/13 00:39:05;;;;;;;11.87;5.30;;;2.00;99.90;;;;;;5067205;28;20224;-68
2024/01/13 00:41:31;;;;;;;10.27;5.93;;;2.00;99.90;;;;;;5068161;28;20310;-70
2024/01/13 00:43:56;;;;;;;11.37;6.53;;;1.90;99.90;;;;;;5061011;28;20533;-69
2024/01/13 00:46:22;;;;;;;11.23;6.50;;;2.00;99.90;;;;;;5068829;28;20216;-70
2024/01/13 00:48:48;;;;;;;15.23;7.00;;;2.00;99.90;;;;;;5066847;28;20247;-69
2024/01/13 00:51:14;;;;;;;15.07;7.77;;;2.00;99.90;;;;;;5067124;28;20249;-69
2024/01/13 00:53:40;;;;;;;19.93;7.60;;;1.90;99.90;;;;;;5067910;28;20240;-71
2024/01/13 00:56:06;;;;;;;12.57;6.23;;;2.00;99.90;;;;;;5073930;28;20462;-70
2024/01/13 00:58:32;;;;;;;11.70;6.80;;;2.00;99.90;;;;;;5054071;28;20534;-70
2024/01/13 01:00:59;;;;;;;14.83;7.70;;;2.00;99.90;;;;;;5066106;28;20274;-70
2024/01/13 01:03:28;;;;;;;17.63;8.97;;;2.00;99.90;;;;;;5066867;28;20223;-71
2024/01/13 01:05:54;;;;;;;15.90;6.60;;;2.00;99.90;;;;;;5066806;28;20469;-71
2024/01/13 01:08:20;;;;;;;18.10;7.30;;;2.10;99.90;;;;;;5067169;28;20464;-70
2024/01/13 01:10:45;;;;;;;13.87;6.83;;;2.10;99.90;;;;;;5052526;28;20216;-70
2024/01/13 01:13:11;;;;;;;15.80;9.37;;;2.10;99.90;;;;;;5063433;28;20311;-70
2024/01/13 01:15:37;;;;;;;13.20;7.30;;;2.00;99.90;;;;;;5067444;28;20232;-71
2024/01/13 01:18:02;;;;;;;9.77;6.40;;;2.10;99.90;;;;;;5066939;28;20212;-71
2024/01/13 01:20:28;;;;;;;19.13;7.03;;;2.10;99.90;;;;;;5067469;28;20242;-70
2024/01/13 01:22:54;;;;;;;17.37;7.73;;;2.10;99.90;;;;;;5063772;28;20216;-70
2024/01/13 01:25:19;;;;;;;15.67;7.97;;;2.00;99.90;;;;;;5064792;28;20215;-70
2024/01/13 01:27:45;;;;;;;22.20;8.07;;;2.10;99.90;;;;;;5065956;28;20708;-70
2024/01/13 01:30:12;;;;;;;19.93;9.33;;;2.00;99.90;;;;;;5067116;28;20212;-68
2024/01/13 01:32:38;;;;;;;12.97;6.90;;;2.10;99.90;;;;;;5068476;28;20219;-70
2024/01/13 01:35:03;;;;;;;14.83;6.70;;;2.00;99.90;;;;;;5048583;28;20530;-68
2024/01/13 01:37:29;;;;;;;22.43;8.00;;;2.00;99.90;;;;;;5048849;28;20219;-70
2024/01/13 01:39:55;;;;;;;16.00;7.47;;;2.00;99.90;;;;;;5065874;28;20211;-70
2024/01/13 01:42:20;;;;;;;13.50;6.40;;;2.10;99.90;;;;;;5067862;28;20216;-71
2024/01/13 01:44:46;;;;;;;12.40;7.10;;;2.10;99.90;;;;;;5068087;28;20597;-69
2024/01/13 01:47:12;;;;;;;14.57;7.70;;;2.10;99.90;;;;;;5048545;28;20230;-69
2024/01/13 01:49:38;;;;;;;19.20;6.33;;;2.10;99.90;;;;;;5068073;28;20231;-70
2024/01/13 01:52:04;;;;;;;15.10;7.30;;;2.10;99.90;;;;;;5064712;28;20469;-70
2024/01/13 01:54:30;;;;;;;16.13;7.70;;;2.10;99.90;;;;;;5048735;28;20234;-69
2024/01/13 01:56:57;;;;;;;11.93;7.23;;;2.10;99.90;;;;;;5058535;28;20458;-69
2024/01/13 01:59:24;;;;;;;13.70;6.40;;;2.10;99.90;;;;;;5067382;28;20240;-69
2024/01/13 02:01:50;;;;;;;13.03;6.70;;;2.10;99.90;;;;;;5066771;28;20512;-70
2024/01/13 02:04:16;;;;;;;10.33;5.83;;;2.10;99.90;;;;;;5050146;28;20442;-71
2024/01/13 02:06:42;;;;;;;14.50;6.50;;;2.10;99.90;;;;;;5066384;28;20543;-70
2024/01/13 02:09:09;;;;;;;15.70;6.30;;;2.10;99.90;;;;;;5054562;28;20219;-70
2024/01/13 02:11:34;;;;;;;14.27;6.13;;;2.10;99.90;;;;;;5086720;28;20461;-70
2024/01/13 02:14:00;;;;;;;16.20;7.47;;;2.10;99.90;;;;;;5065388;28;20450;-71
2024/01/13 02:16:27;;;;;;;15.67;6.50;;;2.10;99.90;;;;;;5067502;28;20240;-70
2024/01/13 02:18:52;;;;;;;11.60;5.70;;;2.10;99.90;;;;;;5061040;28;20231;-70
2024/01/13 02:21:18;;;;;;;9.03;5.87;;;2.10;99.90;;;;;;5082829;28;20512;-70
2024/01/13 02:23:44;;;;;;;13.67;6.50;;;2.10;99.90;;;;;;5073095;28;20505;-70
2024/01/13 02:26:09;;;;;;;13.13;5.93;;;2.10;99.90;;;;;;5060717;28;20220;-71
2024/01/13 02:28:35;;;;;;;14.47;6.73;;;2.10;99.90;;;;;;5065347;28;20228;-70
2024/01/13 02:31:01;;;;;;;16.33;6.53;;;2.10;99.90;;;;;;5065262;28;20789;-70
2024/01/13 02:33:26;;;;;;;12.37;6.40;;;2.10;99.90;;;;;;5070310;28;20454;-71
2024/01/13 02:35:52;;;;;;;14.07;6.20;;;2.10;99.90;;;;;;5067804;28;20224;-71
2024/01/13 02:38:18;;;;;;;12.87;7.00;;;2.10;99.90;;;;;;5085544;28;20261;-71
2024/01/13 02:40:43;;;;;;;10.30;4.90;;;2.00;99.90;;;;;;5054513;28;20225;-71
2024/01/13 02:43:09;;;;;;;10.70;4.90;;;2.00;99.90;;;;;;5068512;28;20231;-70
2024/01/13 02:45:34;;;;;;;14.60;6.30;;;2.10;99.90;;;;;;5071232;28;20239;-70
2024/01/13 02:48:04;;;;;;;11.73;6.23;;;2.10;99.90;;;;;;5068482;28;20227;-70
2024/01/13 02:50:30;;;;;;;10.70;6.30;;;2.10;99.90;;;;;;5068379;28;20314;-70
2024/01/13 02:52:56;;;;;;;7.40;5.80;;;2.00;99.90;;;;;;5069694;28;20542;-72
2024/01/13 02:55:21;;;;;;;17.37;7.13;;;2.10;99.90;;;;;;5069859;28;20220;-70
2024/01/13 02:57:47;;;;;;;12.30;6.63;;;2.00;99.90;;;;;;5075946;28;20228;-70
2024/01/13 03:00:13;;;;;;;16.33;5.80;;;2.00;99.90;;;;;;5052609;28;20212;-69
2024/01/13 03:02:39;;;;;;;17.07;6.50;;;2.00;99.90;;;;;;5070977;28;20220;-71
2024/01/13 03:05:09;;;;;;;12.70;6.40;;;2.00;99.90;;;;;;5068050;28;20315;-70
2024/01/13 03:07:34;;;;;;;12.43;6.67;;;1.90;99.90;;;;;;5063925;28;20443;-71
2024/01/13 03:10:00;;;;;;;9.13;5.40;;;2.00;99.90;;;;;;5052111;28;20477;-70
2024/01/13 03:12:26;;;;;;;7.13;5.40;;;2.00;99.90;;;;;;5069658;28;20645;-70
2024/01/13 03:14:52;;;;;;;8.47;5.10;;;2.10;99.90;;;;;;5066528;28;20454;-70
2024/01/13 03:17:17;;;;;;;15.97;6.20;;;2.00;99.90;;;;;;5066249;28;20239;-71
2024/01/13 03:19:43;;;;;;;19.23;7.40;;;2.00;99.90;;;;;;5067241;28;20223;-71
2024/01/13 03:22:08;;;;;;;13.50;6.17;;;2.00;99.90;;;;;;5069237;28;20267;-70
2024/01/13 03:24:34;;;;;;;10.07;5.50;;;2.00;99.90;;;;;;5058012;28;20802;-71
2024/01/13 03:27:00;;;;;;;9.37;4.30;;;2.10;99.90;;;;;;5063576;28;20281;-70
2024/01/13 03:29:26;;;;;;;15.40;6.20;;;2.10;99.90;;;;;;5068498;28;20490;-71
2024/01/13 03:31:51;;;;;;;14.30;6.00;;;2.10;99.90;;;;;;5068951;28;20226;-70
2024/01/13 03:34:17;;;;;;;12.43;6.00;;;2.10;99.90;;;;;;5052273;28;20358;-71
2024/01/13 03:36:43;;;;;;;15.27;6.53;;;2.10;99.90;;;;;;5067432;28;20212;-70
2024/01/13 03:39:09;;;;;;;12.30;6.93;;;2.10;99.90;;;;;;5050191;28;20216;-70
2024/01/13 03:41:35;;;;;;;17.53;7.37;;;2.10;99.90;;;;;;5068803;28;20688;-71
2024/01/13 03:44:01;;;;;;;14.20;7.00;;;2.10;99.90;;;;;;5071385;28;20486;-70
2024/01/13 03:46:26;;;;;;;17.77;6.77;;;2.10;99.90;;;;;;5068347;28;20211;-70
2024/01/13 03:48:52;;;;;;;16.83;6.97;;;2.10;99.90;;;;;;5066186;28;20563;-70
2024/01/13 03:51:18;;;;;;;13.67;6.70;;;2.10;99.90;;;;;;5068160;28;20260;-70
2024/01/13 03:53:44;;;;;;;19.23;7.33;;;2.10;99.90;;;;;;5068500;28;20216;-70
2024/01/13 03:56:10;;;;;;;16.40;8.13;;;2.10;99.90;;;;;;5060747;28;20669;-70
2024/01/13 03:58:35;;;;;;;18.77;8.20;;;2.10;99.90;;;;;;5068709;28;20896;-71
2024/01/13 04:01:02;;;;;;;22.43;8.23;;;2.10;99.90;;;;;;5081306;28;20228;-70
2024/01/13 04:03:28;;;;;;;14.90;7.80;;;2.10;99.90;;;;;;5071413;28;20235;-70
2024/01/13 04:05:53;;;;;;;17.93;8.43;;;2.10;99.90;;;;;;5084783;28;20458;-69
2024/01/13 04:08:19;;;;;;;19.03;9.03;;;2.10;99.90;;;;;;5067538;28;20250;-70
2024/01/13 04:10:45;;;;;;;18.90;9.00;;;2.10;99.90;;;;;;5067243;28;20224;-70
2024/01/13 04:13:13;;;;;;;18.33;8.23;;;2.00;99.90;;;;;;5078665;28;20227;-70
2024/01/13 04:15:39;;;;;;;18.43;7.93;;;2.00;99.90;;;;;;5065340;28;20237;-70
2024/01/13 04:18:04;;;;;;;14.80;7.40;;;2.00;99.90;;;;;;5064027;28;20541;-70
2024/01/13 04:20:30;;;;;;;20.13;8.57;;;2.00;99.90;;;;;;5051049;28;20601;-71
2024/01/13 04:22:56;;;;;;;14.57;9.07;;;2.10;99.90;;;;;;5066831;28;20458;-70
2024/01/13 04:25:21;;;;;;;14.20;8.00;;;2.10;99.90;;;;;;5083204;28;20247;-70
2024/01/13 04:27:48;;;;;;;19.73;8.97;;;2.00;99.90;;;;;;5069136;28;20215;-70
2024/01/13 04:30:14;;;;;;;22.60;10.27;;;2.10;99.90;;;;;;5067613;28;20217;-70
2024/01/13 04:32:41;;;;;;;19.57;7.93;;;2.10;99.90;;;;;;5068838;28;20465;-70
2024/01/13 04:35:07;;;;;;;16.30;8.23;;;2.10;99.90;;;;;;5066560;28;20474;-70
2024/01/13 04:37:32;;;;;;;21.47;9.57;;;2.10;99.90;;;;;;5067838;28;20454;-70
2024/01/13 04:39:58;;;;;;;18.50;8.40;;;2.10;99.90;;;;;;5065342;28;20541;-71
2024/01/13 04:42:24;;;;;;;17.97;8.00;;;2.10;99.90;;;;;;5067369;28;20234;-70
2024/01/13 04:44:49;;;;;;;17.23;7.77;;;2.10;99.90;;;;;;5067457;28;20220;-70
2024/01/13 04:47:15;;;;;;;17.60;7.60;;;2.10;99.90;;;;;;5064698;28;20219;-70
2024/01/13 04:49:41;;;;;;;21.27;8.70;;;2.10;99.90;;;;;;5068210;28;20224;-71
2024/01/13 04:52:07;;;;;;;18.77;7.33;;;2.20;99.90;;;;;;5066324;28;20733;-71
2024/01/13 04:54:32;;;;;;;13.93;6.60;;;2.20;99.90;;;;;;5068556;28;20224;-70
2024/01/13 04:57:00;;;;;;;15.67;8.30;;;2.10;99.90;;;;;;5076411;28;20479;-70
2024/01/13 04:59:26;;;;;;;13.80;7.07;;;2.10;99.90;;;;;;5048680;28;20227;-70
2024/01/13 05:01:51;;;;;;;18.83;9.17;;;2.10;99.90;;;;;;5072696;28;20469;-71
2024/01/13 05:04:17;;;;;;;11.40;6.37;;;2.10;99.90;;;;;;5064182;28;20208;-70
2024/01/13 05:06:42;;;;;;;11.80;7.03;;;2.10;99.90;;;;;;5083662;28;20269;-70
2024/01/13 05:09:09;;;;;;;11.53;6.57;;;2.10;99.90;;;;;;5081604;28;20303;-71
2024/01/13 05:11:34;;;;;;;10.43;5.50;;;2.10;99.90;;;;;;5068738;28;20224;-70
2024/01/13 05:14:00;;;;;;;11.33;4.93;;;2.10;99.90;;;;;;5064300;28;20457;-70
2024/01/13 05:16:26;;;;;;;9.90;5.00;;;2.10;99.90;;;;;;5052036;28;20224;-70
2024/01/13 05:18:51;;;;;;;8.80;5.03;;;2.10;99.90;;;;;;5065545;28;20216;-71
2024/01/13 05:21:17;;;;;;;9.77;5.50;;;2.10;99.90;;;;;;5065757;28;20211;-70
2024/01/13 05:23:43;;;;;;;10.13;5.13;;;2.10;99.90;;;;;;5049862;28;20647;-69
2024/01/13 05:26:08;;;;;;;7.93;4.43;;;2.10;99.90;;;;;;5066207;28;20306;-69
2024/01/13 05:28:34;;;;;;;7.43;3.93;;;2.00;99.90;;;;;;5071686;28;20227;-69
2024/01/13 05:30:59;;;;;;;11.13;4.70;;;1.90;99.90;;;;;;5066428;28;20265;-69
2024/01/13 05:33:26;;;;;;;6.67;4.20;;;1.90;99.90;;;;;;5067348;28;20277;-69
2024/01/13 05:35:53;;;;;;;7.67;3.37;;;1.90;99.90;;;;;;5066690;28;20323;-69
2024/01/13 05:38:19;;;;;;;7.10;3.97;;;2.00;99.90;;;;;;5065155;28;20982;-70
2024/01/13 05:40:45;;;;;;;15.07;5.57;;;1.90;99.90;;;;;;5065504;28;20458;-70
2024/01/13 05:43:11;;;;;;;6.00;4.73;;;1.90;99.90;;;;;;5065485;28;20450;-69
2024/01/13 05:45:37;;;;;;;7.60;4.20;;;1.90;99.90;;;;;;5065598;28;20231;-70
2024/01/13 05:48:03;;;;;;;6.93;3.80;;;1.80;99.90;;;;;;5052128;28;20306;-68
2024/01/13 05:50:28;;;;;;;6.93;4.20;;;1.70;99.90;;;;;;5066413;28;20214;-70
2024/01/13 05:52:54;;;;;;;9.30;5.10;;;1.70;99.90;;;;;;5065908;28;20216;-70
2024/01/13 05:55:19;;;;;;;4.43;3.50;;;1.70;99.90;;;;;;5048422;28;20215;-70
2024/01/13 05:57:45;;;;;;;8.57;5.03;;;1.70;99.90;;;;;;5065249;28;20218;-70
2024/01/13 06:00:11;;;;;;;10.53;4.60;;;1.80;99.90;;;;;;5048313;28;20219;-69
2024/01/13 06:02:37;;;;;;;7.30;4.33;;;1.70;99.90;;;;;;5079104;28;20270;-69
2024/01/13 06:05:02;;;;;;;6.27;4.10;;;1.70;99.90;;;;;;5050327;28;20216;-69
2024/01/13 06:07:28;;;;;;;8.80;5.00;;;1.80;99.90;;;;;;5067415;28;20220;-70
2024/01/13 06:09:54;;;;;;;9.13;4.73;;;1.80;99.90;;;;;;5070389;28;20353;-69
2024/01/13 06:12:20;;;;;;;6.00;4.10;;;1.80;99.90;;;;;;5068527;28;20593;-69
2024/01/13 06:14:46;;;;;;;9.50;4.47;;;1.90;99.90;;;;;;5085663;28;20235;-69
2024/01/13 06:17:12;;;;;;;7.37;4.17;;;1.90;99.90;;;;;;5066168;28;20551;-70
2024/01/13 06:19:38;;;;;;;11.13;4.27;;;1.80;99.90;;;;;;5068573;28;21007;-69
2024/01/13 06:22:04;;;;;;;8.43;4.00;;;1.80;99.90;;;;;;5074706;28;20317;-69
2024/01/13 06:24:29;;;;;;;8.40;4.80;;;1.90;99.90;;;;;;5071401;28;20219;-70
2024/01/13 06:26:55;;;;;;;7.13;4.13;;;1.90;99.90;;;;;;5069213;28;20220;-69
2024/01/13 06:29:21;;;;;;;14.50;4.77;;;1.90;99.90;;;;;;5068445;28;20314;-70
2024/01/13 06:31:46;;;;;;;7.70;4.53;;;2.00;99.90;;;;;;5072341;28;20236;-70
2024/01/13 06:34:12;;;;;;;13.13;5.37;;;1.90;99.90;;;;;;5069530;28;20235;-69
2024/01/13 06:36:38;;;;;;;9.00;4.47;;;1.90;99.90;;;;;;5068137;28;20216;-70
2024/01/13 06:39:04;;;;;;;5.63;3.80;;;2.00;99.90;;;;;;5051313;28;20237;-69
2024/01/13 06:41:31;;;;;;;9.47;4.57;;;2.00;99.90;;;;;;5068707;28;20223;-70
2024/01/13 06:43:56;;;;;;;10.10;4.60;;;1.80;99.90;;;;;;5085073;28;21007;-70
2024/01/13 06:46:22;;;;;;;9.80;5.40;;;1.80;99.90;;;;;;5069208;28;20475;-69
2024/01/13 06:48:48;;;;;;;7.60;4.97;;;1.80;99.90;;;;;;5073975;28;20227;-69
2024/01/13 06:51:14;;;;;;;10.67;5.30;;;1.80;99.90;;;;;;5068795;28;20300;-70
2024/01/13 06:53:40;;;;;;;7.50;4.90;;;1.80;99.90;;;;;;5067844;28;20216;-69
2024/01/13 06:56:05;;;;;;;6.97;5.00;;;1.80;99.90;;;;;;5083408;28;20986;-69
2024/01/13 06:58:31;;;;;;;14.87;5.10;;;1.90;99.90;;;;;;5057992;28;20627;-69
2024/01/13 07:00:58;;;;;;;7.90;4.90;;;1.90;99.90;;;;;;5067647;28;20542;-69
2024/01/13 07:03:23;;;;;;;7.27;4.80;;;2.00;99.90;;;;;;5072784;28;20207;-69
2024/01/13 07:05:49;;;;;;;8.60;5.30;;;2.00;99.90;;;;;;5069022;28;20466;-70
2024/01/13 07:08:15;;;;;;;8.17;4.90;;;2.00;99.90;;;;;;5065003;28;20235;-70
2024/01/13 07:10:40;;;;;;;8.60;5.30;;;2.00;99.90;;;;;;5068436;28;20226;-69
2024/01/13 07:13:06;;;;;;;6.70;4.40;;;2.00;99.90;;;;;;5067260;28;20582;-69
2024/01/13 07:15:32;;;;;;;7.27;5.03;;;1.90;99.90;;;;;;5068580;28;20278;-70
2024/01/13 07:17:59;;;;;;;7.47;4.20;;;1.90;99.90;;;;;;5067934;28;20327;-69
2024/01/13 07:20:26;;;;;;;7.47;4.10;;;1.90;99.90;;;;;;5073941;28;20223;-70
2024/01/13 07:22:51;;;;;;;7.03;4.40;;;1.90;99.90;;;;;;5068151;28;20480;-69
2024/01/13 07:25:17;;;;;;;11.20;3.73;;;1.90;99.90;;;;;;5067765;28;20991;-70
2024/01/13 07:27:43;;;;;;;6.77;4.07;;;1.80;99.90;;;;;;5067975;28;20223;-70
2024/01/13 07:30:09;;;;;;;7.07;4.37;;;1.60;99.90;;;;;;5069277;28;20232;-70
2024/01/13 07:32:35;;;;;;;5.43;2.77;;;1.60;99.90;;;;;;5073097;28;20297;-70
2024/01/13 07:35:00;;;;;;;5.80;3.67;;;1.70;99.90;;;;;;5066836;28;20504;-69
2024/01/13 07:37:26;;;;;;;5.83;3.90;;;1.80;99.90;;;;;;5067471;28;20215;-71
2024/01/13 07:39:51;;;;;;;5.90;3.60;;;1.90;99.90;;;;;;5065378;28;20221;-69
2024/01/13 07:42:17;;;;;;;8.20;4.67;;;2.00;99.90;;;;;;5055347;28;20216;-71
2024/01/13 07:44:43;;;;;;;10.10;3.87;;;2.00;99.90;;;;;;5066929;28;20211;-70
2024/01/13 07:47:09;;;;;;;8.13;3.97;;;1.90;99.90;;;;;;5066550;28;20216;-70
2024/01/13 07:49:34;;;;;;;10.23;4.77;;;1.80;99.90;;;;;;5067284;28;20235;-69
2024/01/13 07:52:01;;;;;;;5.83;4.07;;;1.70;99.90;;;;;;5065779;28;20216;-70
2024/01/13 07:54:26;;;;;;;8.63;4.60;;;1.60;99.90;;;;;;5082224;28;20212;-69
2024/01/13 07:56:52;;;;;;;7.63;4.70;;;1.70;99.90;;;;;;5053664;28;20450;-69
2024/01/13 07:59:18;;;;;;;9.20;5.10;;;1.80;99.90;;;;;;5049408;28;20219;-67
2024/01/13 08:01:45;;;;;;;8.43;5.27;;;1.90;99.90;;;;;;5049559;28;20477;-68
2024/01/13 08:04:12;;;;;;;7.10;4.83;;;2.00;99.90;;;;;;5049972;28;20219;-67
2024/01/13 08:06:38;;;;;;;6.80;4.80;;;2.00;99.90;;;;;;5081455;28;20849;-68
2024/01/13 08:09:04;;;;;;;7.17;5.20;;;2.00;99.90;;;;;;5065705;28;20991;-70
2024/01/13 08:11:30;;;;;;;10.37;5.17;;;1.90;99.90;;;;;;5074877;28;20540;-70
2024/01/13 08:13:59;;;;;;;7.57;5.40;;;1.80;99.90;;;;;;5069676;28;20457;-69
2024/01/13 08:16:25;;;;;;;10.83;5.00;;;1.70;99.90;;;;;;5065249;28;20361;-68
2024/01/13 08:18:51;;;;;;;8.27;5.03;;;1.70;99.90;;;;;;5066892;28;20544;-70
2024/01/13 08:21:16;;;;;;;8.80;5.30;;;1.70;99.90;;;;;;5050397;28;20223;-70
2024/01/13 08:23:42;;;;;;;9.50;4.40;;;1.60;99.90;;;;;;5067433;28;20269;-69
2024/01/13 08:26:08;;;;;;;8.90;5.20;;;1.70;99.90;;;;;;5065853;28;20258;-70
2024/01/13 08:28:34;;;;;;;11.30;5.50;;;1.60;99.90;;;;;;5068438;28;20227;-70
2024/01/13 08:30:59;;;;;;;8.77;4.70;;;1.50;99.90;;;;;;5070461;28;20222;-70
2024/01/13 08:33:25;;;;;;;9.63;4.70;;;1.40;99.90;;;;;;5068974;28;20458;-69
2024/01/13 08:35:51;;;;;;;6.80;4.77;;;1.50;99.90;;;;;;5067649;28;20216;-69
2024/01/13 08:38:16;;;;;;;6.70;4.43;;;1.50;99.90;;;;;;5064962;28;20220;-70
2024/01/13 08:40:45;;;;;;;9.90;5.70;;;1.50;99.90;;;;;;5083218;28;20223;-70
2024/01/13 08:43:11;;;;;;;12.50;5.77;;;1.60;99.90;;;;;;5064115;28;20357;-69
2024/01/13 08:45:37;;;;;;;16.13;5.93;;;1.60;99.90;;;;;;5069984;28;20454;-69
2024/01/13 08:48:03;;;;;;;6.90;5.20;;;1.50;99.90;;;;;;5065906;28;20505;-70
2024/01/13 08:50:29;;;;;;;7.03;4.13;;;1.50;99.90;;;;;;5064026;28;20220;-69
2024/01/13 08:52:55;;;;;;;9.70;4.70;;;1.40;99.90;;;;;;5063413;28;20557;-71
2024/01/13 08:55:24;;;;;;;9.20;5.63;;;1.50;99.90;;;;;;5066701;28;20590;-70
2024/01/13 08:57:50;;;;;;;6.13;3.90;;;1.40;99.90;;;;;;5069735;28;20445;-70
2024/01/13 09:00:17;;;;;;;7.50;4.87;;;1.40;99.90;;;;;;5062971;28;20446;-69
2024/01/13 09:02:44;;;;;;;6.67;3.87;;;1.50;99.90;;;;;;5066780;28;20455;-70
2024/01/13 09:05:11;;;;;;;9.27;4.90;;;1.60;99.90;;;;;;5067762;28;20446;-70
2024/01/13 09:07:37;;;;;;;9.67;5.83;;;1.60;99.90;;;;;;5071371;28;20449;-71
2024/01/13 09:10:04;;;;;;;4.87;4.03;;;1.60;99.90;;;;;;5067280;28;20478;-71
2024/01/13 09:12:30;;;;;;;11.37;5.10;;;1.50;99.90;;;;;;5079456;28;20527;-70
2024/01/13 09:14:56;;;;;;;7.50;4.30;;;1.60;99.90;;;;;;5072216;28;20466;-70
2024/01/13 09:17:21;;;;;;;7.00;4.10;;;1.60;99.90;;;;;;5074823;28;21127;-68
2024/01/13 09:19:47;;;;;;;8.50;4.03;;;1.70;99.90;;;;;;5069496;28;20215;-70
2024/01/13 09:22:13;;;;;;;7.23;4.40;;;1.50;99.90;;;;;;5063188;28;20236;-69
2024/01/13 09:24:41;;;;;;;8.87;4.50;;;1.40;99.90;;;;;;5064964;28;20263;-70
2024/01/13 09:27:07;;;;;;;6.17;3.90;;;1.50;99.90;;;;;;5068618;28;20215;-70
2024/01/13 09:29:32;;;;;;;8.07;4.70;;;1.60;99.90;;;;;;5069323;28;20621;-70
2024/01/13 09:31:59;;;;;;;5.87;3.97;;;1.60;99.90;;;;;;5065022;28;20276;-70
2024/01/13 09:34:24;;;;;;;4.87;3.80;;;1.50;99.90;;;;;;5071325;28;20222;-70
2024/01/13 09:36:50;;;;;;;6.80;4.20;;;1.50;99.90;;;;;;5065810;28;20454;-71
2024/01/13 09:39:16;;;;;;;7.57;4.30;;;1.50;99.90;;;;;;5070144;28;20219;-71
2024/01/13 09:41:45;;;;;;;5.23;3.77;;;1.40;99.90;;;;;;5068839;28;20591;-71
2024/01/13 09:44:32;;;;;;;7.10;4.93;;;1.30;99.90;;;;;;5070684;28;20226;-71
2024/01/13 09:47:00;;;;;;;10.00;4.93;;;1.30;99.90;;;;;;5072129;28;20468;-70
2024/01/13 09:49:30;;;;;;;9.10;4.70;;;1.50;99.90;;;;;;5070629;28;20462;-70
2024/01/13 09:51:57;;;;;;;4.67;3.23;;;1.50;99.90;;;;;;5070525;28;20469;-71
2024/01/13 09:54:25;;;;;;;10.83;4.40;;;1.50;99.90;;;;;;5064972;28;20502;-71
2024/01/13 09:56:53;;;;;;;5.57;3.40;;;1.50;99.90;;;;;;5073266;28;20598;-71
2024/01/13 09:59:22;;;;;;;7.30;3.60;;;1.40;99.90;;;;;;5064398;28;20469;-70
2024/01/13 10:01:54;;;;;;;4.70;3.30;;;1.60;99.90;;;;;;5057787;28;20469;-71
2024/01/13 10:04:20;;;;;;;4.80;3.60;;;1.50;99.90;;;;;;5074413;28;20493;-70
2024/01/13 10:06:48;;;;;;;6.20;4.07;;;1.40;99.90;;;;;;5066008;28;20522;-71
2024/01/13 10:09:14;;;;;;;7.70;4.13;;;1.50;99.90;;;;;;5064243;28;20441;-69
2024/01/13 10:11:39;;;;;;;5.57;3.40;;;1.60;99.90;;;;;;5045982;28;20467;-71
2024/01/13 10:14:11;;;;;;;5.40;3.60;;;1.60;99.90;;;;;;5079473;28;20469;-71
2024/01/13 10:16:37;;;;;;;3.93;3.57;;;1.60;99.90;;;;;;5073042;28;20231;-71
2024/01/13 10:19:09;;;;;;;5.63;4.10;;;1.50;99.90;;;;;;5064502;28;20949;-70
2024/01/13 10:21:36;;;;;;;5.50;3.60;;;1.50;99.90;;;;;;5054253;28;20351;-71
2024/01/13 10:24:02;;;;;;;9.03;4.10;;;1.60;99.90;;;;;;5067933;28;20496;-71
2024/01/13 10:26:29;;;;;;;7.20;4.13;;;1.40;99.90;;;;;;5068289;28;20481;-71
2024/01/13 10:28:56;;;;;;;5.30;3.53;;;1.40;99.90;;;;;;5065636;28;20474;-71
2024/01/13 10:31:23;;;;;;;8.83;4.47;;;1.40;99.90;;;;;;5066821;28;20478;-71
2024/01/13 10:33:50;;;;;;;7.47;4.30;;;1.50;99.90;;;;;;5069277;28;20533;-70
2024/01/13 10:36:19;;;;;;;6.07;4.60;;;1.50;99.90;;;;;;5068511;28;20499;-70
2024/01/13 10:38:45;;;;;;;5.00;3.40;;;1.50;99.90;;;;;;5069870;28;20446;-71
2024/01/13 10:41:11;;;;;;;5.90;4.07;;;1.60;99.90;;;;;;5069664;28;20523;-71
2024/01/13 10:43:43;;;;;;;4.57;3.87;;;1.50;99.90;;;;;;5052818;28;20230;-71
2024/01/13 10:46:12;;;;;;;6.40;4.10;;;1.40;99.90;;;;;;5086981;28;20494;-71
2024/01/13 10:48:37;;;;;;;8.97;5.13;;;1.50;99.90;;;;;;5089005;28;20470;-71
2024/01/13 10:51:09;;;;;;;11.97;7.30;;;1.40;99.90;;;;;;5066629;28;20472;-70
2024/01/13 10:53:36;;;;;;;9.13;7.37;;;1.30;99.90;;;;;;5071109;28;20605;-71
2024/01/13 10:56:04;;;;;;;14.17;6.97;;;1.20;99.90;;;;;;5070387;28;20450;-71
2024/01/13 10:58:30;;;;;;;8.87;6.10;;;1.20;99.90;;;;;;5064516;28;20489;-70
2024/01/13 11:00:56;;;;;;;10.00;6.07;;;1.20;99.90;;;;;;5072079;28;20454;-71
2024/01/13 11:03:24;;;;;;;9.37;6.07;;;1.20;99.90;;;;;;5068557;28;20511;-70
2024/01/13 11:05:49;;;;;;;5.53;4.60;;;1.20;99.90;;;;;;5067734;28;20220;-71
2024/01/13 11:08:15;;;;;;;7.87;4.77;;;1.40;99.90;;;;;;5064557;28;20592;-70
2024/01/13 11:10:46;;;;;;;9.07;5.93;;;1.40;99.90;;;;;;5066455;28;20215;-71
2024/01/13 11:13:16;;;;;;;18.93;12.03;;;1.40;99.90;;;;;;5067642;28;20231;-70
2024/01/13 11:15:48;;;;;;;19.33;11.57;;;1.40;99.90;;;;;;5071202;28;20458;-70
2024/01/13 11:18:18;;;;;;;13.10;8.50;;;1.40;99.90;;;;;;5065471;28;20433;-71
2024/01/13 11:21:02;;;;;;;17.40;8.30;;;1.30;99.90;;;;;;5069396;28;20446;-70
2024/01/13 11:23:36;;;;;;;27.30;12.50;;;1.30;99.90;;;;;;5067032;28;20473;-70
2024/01/13 11:26:02;;;;;;;42.53;20.80;;;1.30;99.90;;;;;;5071434;28;21044;-71
2024/01/13 11:28:51;;;;;;;37.70;17.20;;;1.30;99.90;;;;;;5054165;28;20490;-71
2024/01/13 11:31:32;;;;;;;9.80;6.20;;;1.20;99.90;;;;;;5062416;28;20294;-71
2024/01/13 11:34:02;;;;;;;10.70;6.97;;;1.10;99.90;;;;;;5064309;28;20474;-71
2024/01/13 11:36:48;;;;;;;11.13;6.80;;;1.30;99.90;;;;;;5084098;28;20446;-71
2024/01/13 11:39:16;;;;;;;9.97;5.53;;;1.30;99.90;;;;;;5067149;28;20462;-70
2024/01/13 11:41:41;;;;;;;8.43;5.20;;;1.30;99.90;;;;;;5080991;28;20529;-72
2024/01/13 11:44:08;;;;;;;9.77;4.67;;;1.40;99.90;;;;;;5068723;28;20553;-69
2024/01/13 11:46:38;;;;;;;18.97;8.47;;;1.40;99.90;;;;;;5065765;28;20236;-72
2024/01/13 11:49:05;;;;;;;28.27;14.37;;;1.40;99.90;;;;;;5069438;28;20470;-70
2024/01/13 11:51:58;;;;;;;32.67;13.50;;;1.40;99.90;;;;;;5066501;28;20511;-71
2024/01/13 11:54:25;;;;;;;109.53;35.07;;;1.40;99.90;;;;;;5050653;28;20456;-71
2024/01/13 11:56:52;;;;;;;74.93;32.83;;;1.40;99.90;;;;;;5062210;28;20481;-71
2024/01/13 11:59:18;;;;;;;50.37;20.80;;;1.20;99.90;;;;;;5068410;28;20447;-71
2024/01/13 12:01:47;;;;;;;52.77;24.00;;;1.10;99.90;;;;;;5068477;28;20469;-71
2024/01/13 12:04:15;;;;;;;42.33;23.53;;;1.20;99.90;;;;;;5068969;28;20447;-71
2024/01/13 12:06:42;;;;;;;19.50;12.47;;;1.30;99.90;;;;;;5056250;28;20538;-71
2024/01/13 12:09:08;;;;;;;12.90;7.10;;;1.30;99.90;;;;;;5053693;28;20459;-71
2024/01/13 12:11:34;;;;;;;9.93;4.10;;;1.20;99.90;;;;;;5068225;28;20470;-71
2024/01/13 12:14:03;;;;;;;5.80;4.30;;;1.20;99.90;;;;;;5066566;28;20449;-71
2024/01/13 12:16:29;;;;;;;6.57;3.80;;;1.20;99.90;;;;;;5049221;28;20701;-71
2024/01/13 12:18:55;;;;;;;8.07;5.10;;;1.10;99.90;;;;;;5065313;28;20562;-71
2024/01/13 12:21:22;;;;;;;8.77;4.67;;;1.20;99.90;;;;;;5066173;28;20500;-71
2024/01/13 12:23:48;;;;;;;6.60;4.13;;;1.20;99.90;;;;;;5079419;28;20224;-71
2024/01/13 12:26:14;;;;;;;10.40;5.70;;;1.30;99.90;;;;;;5067664;28;20442;-71
2024/01/13 12:28:40;;;;;;;5.63;4.00;;;1.30;99.90;;;;;;5079322;28;20285;-71
2024/01/13 12:31:07;;;;;;;8.70;4.50;;;1.30;99.90;;;;;;5064615;28;20261;-70
2024/01/13 12:33:33;;;;;;;10.80;4.90;;;1.40;99.90;;;;;;5066674;28;20541;-71
2024/01/13 12:36:03;;;;;;;9.37;4.87;;;1.50;99.90;;;;;;5063681;28;20457;-72
2024/01/13 12:38:30;;;;;;;11.03;5.33;;;1.50;99.90;;;;;;5065425;28;20458;-70
2024/01/13 12:40:57;;;;;;;12.50;6.67;;;1.50;99.90;;;;;;5069525;28;20459;-71
2024/01/13 12:43:26;;;;;;;27.20;11.40;;;1.40;99.90;;;;;;5062129;28;20461;-71
2024/01/13 12:45:54;;;;;;;20.90;10.30;;;1.40;99.90;;;;;;5065008;28;20465;-71